sensor_id;sensor_type;location;lat;lon;timestamp;P1;durP1;ratioP1;P2;durP2;ratioP2
3587;SDS011;1808;53.596;9.972;2023-04-01T00:01:30;13.77;;;6.90;;
3587;SDS011;1808;53.596;9.972;2023-04-01T00:03:56;17.80;;;7.47;;
3587;SDS011;1808;53.596;9.972;2023-04-01T00:06:23;16.63;;;8.00;;
3587;SDS011;1808;53.596;9.972;2023-04-01T00:08:50;12.20;;;6.80;;
3587;SDS011;1808;53.596;9.972;2023-04-01T00:11:18;16.05;;;7.55;;
3587;SDS011;1808;53.596;9.972;2023-04-01T00:13:44;11.50;;;7.20;;
3587;SDS011;1808;53.596;9.972;2023-04-01T00:16:10;16.20;;;6.78;;
3587;SDS011;1808;53.596;9.972;2023-04-01T00:18:36;18.17;;;7.35;;
3587;SDS011;1808;53.596;9.972;2023-04-01T00:21:03;13.27;;;6.80;;
3587;SDS011;1808;53.596;9.972;2023-04-01T00:23:29;14.30;;;6.45;;
3587;SDS011;1808;53.596;9.972;2023-04-01T00:25:58;14.20;;;6.70;;
3587;SDS011;1808;53.596;9.972;2023-04-01T00:28:24;14.48;;;7.78;;
3587;SDS011;1808;53.596;9.972;2023-04-01T00:30:51;12.30;;;6.90;;
3587;SDS011;1808;53.596;9.972;2023-04-01T00:33:17;17.40;;;6.85;;
3587;SDS011;1808;53.596;9.972;2023-04-01T00:35:43;16.00;;;7.45;;
3587;SDS011;1808;53.596;9.972;2023-04-01T00:38:10;13.82;;;6.68;;
3587;SDS011;1808;53.596;9.972;2023-04-01T00:40:37;13.10;;;7.05;;
3587;SDS011;1808;53.596;9.972;2023-04-01T00:43:09;12.77;;;6.45;;
3587;SDS011;1808;53.596;9.972;2023-04-01T00:45:37;13.98;;;6.80;;
3587;SDS011;1808;53.596;9.972;2023-04-01T00:48:04;14.27;;;6.25;;
3587;SDS011;1808;53.596;9.972;2023-04-01T00:50:31;13.20;;;6.60;;
3587;SDS011;1808;53.596;9.972;2023-04-01T00:52:59;13.68;;;6.63;;
3587;SDS011;1808;53.596;9.972;2023-04-01T00:55:25;13.52;;;7.03;;
3587;SDS011;1808;53.596;9.972;2023-04-01T00:57:53;12.88;;;6.50;;
3587;SDS011;1808;53.596;9.972;2023-04-01T01:00:22;11.65;;;6.65;;
3587;SDS011;1808;53.596;9.972;2023-04-01T01:02:48;17.67;;;7.78;;
3587;SDS011;1808;53.596;9.972;2023-04-01T01:05:16;14.80;;;6.25;;
3587;SDS011;1808;53.596;9.972;2023-04-01T01:07:45;15.60;;;6.68;;
3587;SDS011;1808;53.596;9.972;2023-04-01T01:10:13;13.75;;;6.70;;
3587;SDS011;1808;53.596;9.972;2023-04-01T01:12:44;16.23;;;7.25;;
3587;SDS011;1808;53.596;9.972;2023-04-01T01:15:12;11.70;;;5.88;;
3587;SDS011;1808;53.596;9.972;2023-04-01T01:17:47;11.70;;;7.13;;
3587;SDS011;1808;53.596;9.972;2023-04-01T01:20:19;14.35;;;6.90;;
3587;SDS011;1808;53.596;9.972;2023-04-01T01:22:57;13.77;;;6.55;;
3587;SDS011;1808;53.596;9.972;2023-04-01T01:25:30;10.98;;;6.00;;
3587;SDS011;1808;53.596;9.972;2023-04-01T01:28:01;12.98;;;6.65;;
3587;SDS011;1808;53.596;9.972;2023-04-01T01:30:37;13.30;;;6.18;;
3587;SDS011;1808;53.596;9.972;2023-04-01T01:33:11;10.63;;;5.60;;
3587;SDS011;1808;53.596;9.972;2023-04-01T01:35:41;15.85;;;6.40;;
3587;SDS011;1808;53.596;9.972;2023-04-01T01:38:10;13.13;;;6.57;;
3587;SDS011;1808;53.596;9.972;2023-04-01T01:40:37;12.07;;;6.35;;
3587;SDS011;1808;53.596;9.972;2023-04-01T01:43:05;10.82;;;5.78;;
3587;SDS011;1808;53.596;9.972;2023-04-01T01:45:33;12.68;;;5.82;;
3587;SDS011;1808;53.596;9.972;2023-04-01T01:48:01;10.93;;;5.90;;
3587;SDS011;1808;53.596;9.972;2023-04-01T01:50:28;10.70;;;5.50;;
3587;SDS011;1808;53.596;9.972;2023-04-01T01:53:01;9.02;;;5.70;;
3587;SDS011;1808;53.596;9.972;2023-04-01T01:55:29;13.48;;;6.45;;
3587;SDS011;1808;53.596;9.972;2023-04-01T01:57:55;12.05;;;4.97;;
3587;SDS011;1808;53.596;9.972;2023-04-01T02:00:24;10.45;;;5.25;;
3587;SDS011;1808;53.596;9.972;2023-04-01T02:02:51;11.80;;;5.55;;
3587;SDS011;1808;53.596;9.972;2023-04-01T02:05:19;11.43;;;5.45;;
3587;SDS011;1808;53.596;9.972;2023-04-01T02:07:48;11.02;;;6.00;;
3587;SDS011;1808;53.596;9.972;2023-04-01T02:10:17;12.00;;;5.10;;
3587;SDS011;1808;53.596;9.972;2023-04-01T02:12:44;9.30;;;4.72;;
3587;SDS011;1808;53.596;9.972;2023-04-01T02:15:12;11.93;;;5.47;;
3587;SDS011;1808;53.596;9.972;2023-04-01T02:17:41;10.10;;;5.25;;
3587;SDS011;1808;53.596;9.972;2023-04-01T02:20:10;13.70;;;6.22;;
3587;SDS011;1808;53.596;9.972;2023-04-01T02:22:39;13.55;;;5.88;;
3587;SDS011;1808;53.596;9.972;2023-04-01T02:25:08;11.98;;;5.78;;
3587;SDS011;1808;53.596;9.972;2023-04-01T02:27:36;12.65;;;5.55;;
3587;SDS011;1808;53.596;9.972;2023-04-01T02:30:02;13.60;;;6.00;;
3587;SDS011;1808;53.596;9.972;2023-04-01T02:32:28;10.93;;;5.40;;
3587;SDS011;1808;53.596;9.972;2023-04-01T02:34:56;9.57;;;5.20;;
3587;SDS011;1808;53.596;9.972;2023-04-01T02:37:24;9.13;;;5.60;;
3587;SDS011;1808;53.596;9.972;2023-04-01T02:39:50;9.60;;;6.22;;
3587;SDS011;1808;53.596;9.972;2023-04-01T02:42:16;12.27;;;5.57;;
3587;SDS011;1808;53.596;9.972;2023-04-01T02:44:44;12.57;;;5.45;;
3587;SDS011;1808;53.596;9.972;2023-04-01T02:47:10;12.65;;;5.53;;
3587;SDS011;1808;53.596;9.972;2023-04-01T02:49:36;11.30;;;5.72;;
3587;SDS011;1808;53.596;9.972;2023-04-01T02:52:02;10.77;;;6.18;;
3587;SDS011;1808;53.596;9.972;2023-04-01T02:54:29;9.98;;;5.63;;
3587;SDS011;1808;53.596;9.972;2023-04-01T02:56:55;12.32;;;6.43;;
3587;SDS011;1808;53.596;9.972;2023-04-01T02:59:21;11.75;;;6.20;;
3587;SDS011;1808;53.596;9.972;2023-04-01T03:01:49;16.05;;;6.18;;
3587;SDS011;1808;53.596;9.972;2023-04-01T03:04:15;12.77;;;5.90;;
3587;SDS011;1808;53.596;9.972;2023-04-01T03:06:41;11.35;;;5.80;;
3587;SDS011;1808;53.596;9.972;2023-04-01T03:09:07;12.10;;;6.40;;
3587;SDS011;1808;53.596;9.972;2023-04-01T03:11:34;12.88;;;6.47;;
3587;SDS011;1808;53.596;9.972;2023-04-01T03:14:00;12.35;;;6.45;;
3587;SDS011;1808;53.596;9.972;2023-04-01T03:16:26;10.57;;;5.97;;
3587;SDS011;1808;53.596;9.972;2023-04-01T03:18:54;14.65;;;6.60;;
3587;SDS011;1808;53.596;9.972;2023-04-01T03:21:24;10.70;;;6.10;;
3587;SDS011;1808;53.596;9.972;2023-04-01T03:23:50;13.15;;;6.60;;
3587;SDS011;1808;53.596;9.972;2023-04-01T03:26:17;13.23;;;7.40;;
3587;SDS011;1808;53.596;9.972;2023-04-01T03:28:43;15.05;;;6.55;;
3587;SDS011;1808;53.596;9.972;2023-04-01T03:31:10;14.32;;;7.50;;
3587;SDS011;1808;53.596;9.972;2023-04-01T03:33:36;15.73;;;6.20;;
3587;SDS011;1808;53.596;9.972;2023-04-01T03:36:04;14.18;;;7.25;;
3587;SDS011;1808;53.596;9.972;2023-04-01T03:38:31;13.00;;;7.47;;
3587;SDS011;1808;53.596;9.972;2023-04-01T03:40:57;14.25;;;7.57;;
3587;SDS011;1808;53.596;9.972;2023-04-01T03:43:24;15.38;;;6.57;;
3587;SDS011;1808;53.596;9.972;2023-04-01T03:45:50;13.70;;;6.90;;
3587;SDS011;1808;53.596;9.972;2023-04-01T03:48:17;13.20;;;6.75;;
3587;SDS011;1808;53.596;9.972;2023-04-01T03:50:43;13.15;;;7.40;;
3587;SDS011;1808;53.596;9.972;2023-04-01T03:53:11;15.57;;;7.75;;
3587;SDS011;1808;53.596;9.972;2023-04-01T03:55:37;16.25;;;8.48;;
3587;SDS011;1808;53.596;9.972;2023-04-01T03:58:04;14.43;;;7.53;;
3587;SDS011;1808;53.596;9.972;2023-04-01T04:00:30;18.10;;;7.68;;
3587;SDS011;1808;53.596;9.972;2023-04-01T04:02:56;16.88;;;7.72;;
3587;SDS011;1808;53.596;9.972;2023-04-01T04:05:23;15.05;;;8.40;;
3587;SDS011;1808;53.596;9.972;2023-04-01T04:07:50;11.38;;;6.93;;
3587;SDS011;1808;53.596;9.972;2023-04-01T04:10:17;16.90;;;7.47;;
3587;SDS011;1808;53.596;9.972;2023-04-01T04:12:43;15.40;;;7.55;;
3587;SDS011;1808;53.596;9.972;2023-04-01T04:15:10;15.80;;;8.18;;
3587;SDS011;1808;53.596;9.972;2023-04-01T04:17:36;16.13;;;8.05;;
3587;SDS011;1808;53.596;9.972;2023-04-01T04:20:03;15.05;;;7.63;;
3587;SDS011;1808;53.596;9.972;2023-04-01T04:22:29;16.90;;;7.75;;
3587;SDS011;1808;53.596;9.972;2023-04-01T04:24:55;16.05;;;8.02;;
3587;SDS011;1808;53.596;9.972;2023-04-01T04:27:23;15.43;;;8.30;;
3587;SDS011;1808;53.596;9.972;2023-04-01T04:29:49;13.00;;;7.03;;
3587;SDS011;1808;53.596;9.972;2023-04-01T04:32:15;15.18;;;8.02;;
3587;SDS011;1808;53.596;9.972;2023-04-01T04:34:41;14.57;;;9.05;;
3587;SDS011;1808;53.596;9.972;2023-04-01T04:37:08;17.30;;;8.30;;
3587;SDS011;1808;53.596;9.972;2023-04-01T04:39:34;15.98;;;8.75;;
3587;SDS011;1808;53.596;9.972;2023-04-01T04:42:00;17.20;;;8.10;;
3587;SDS011;1808;53.596;9.972;2023-04-01T04:44:27;16.20;;;8.57;;
3587;SDS011;1808;53.596;9.972;2023-04-01T04:46:54;17.35;;;8.15;;
3587;SDS011;1808;53.596;9.972;2023-04-01T04:49:20;15.35;;;8.80;;
3587;SDS011;1808;53.596;9.972;2023-04-01T04:51:46;19.25;;;9.88;;
3587;SDS011;1808;53.596;9.972;2023-04-01T04:54:13;17.77;;;8.55;;
3587;SDS011;1808;53.596;9.972;2023-04-01T04:56:39;14.70;;;8.02;;
3587;SDS011;1808;53.596;9.972;2023-04-01T04:59:05;17.23;;;8.10;;
3587;SDS011;1808;53.596;9.972;2023-04-01T05:01:33;18.35;;;10.52;;
3587;SDS011;1808;53.596;9.972;2023-04-01T05:03:59;16.20;;;7.97;;
3587;SDS011;1808;53.596;9.972;2023-04-01T05:06:25;13.02;;;7.88;;
3587;SDS011;1808;53.596;9.972;2023-04-01T05:08:54;16.88;;;9.10;;
3587;SDS011;1808;53.596;9.972;2023-04-01T05:11:21;18.95;;;9.80;;
3587;SDS011;1808;53.596;9.972;2023-04-01T05:13:47;18.75;;;11.77;;
3587;SDS011;1808;53.596;9.972;2023-04-01T05:16:14;13.93;;;8.23;;
3587;SDS011;1808;53.596;9.972;2023-04-01T05:18:42;18.83;;;10.52;;
3587;SDS011;1808;53.596;9.972;2023-04-01T05:21:09;12.52;;;6.97;;
3587;SDS011;1808;53.596;9.972;2023-04-01T05:23:36;5.35;;;2.92;;
3587;SDS011;1808;53.596;9.972;2023-04-01T05:26:02;3.65;;;1.90;;
3587;SDS011;1808;53.596;9.972;2023-04-01T05:28:29;4.35;;;2.30;;
3587;SDS011;1808;53.596;9.972;2023-04-01T05:30:55;3.33;;;1.67;;
3587;SDS011;1808;53.596;9.972;2023-04-01T05:33:24;3.47;;;2.03;;
3587;SDS011;1808;53.596;9.972;2023-04-01T05:35:51;2.95;;;1.40;;
3587;SDS011;1808;53.596;9.972;2023-04-01T05:38:17;3.33;;;1.80;;
3587;SDS011;1808;53.596;9.972;2023-04-01T05:40:43;2.88;;;1.33;;
3587;SDS011;1808;53.596;9.972;2023-04-01T05:43:10;2.90;;;1.23;;
3587;SDS011;1808;53.596;9.972;2023-04-01T05:45:36;2.30;;;1.10;;
3587;SDS011;1808;53.596;9.972;2023-04-01T05:48:03;2.72;;;1.30;;
3587;SDS011;1808;53.596;9.972;2023-04-01T05:50:29;3.38;;;1.63;;
3587;SDS011;1808;53.596;9.972;2023-04-01T05:52:57;3.50;;;1.42;;
3587;SDS011;1808;53.596;9.972;2023-04-01T05:55:23;3.40;;;1.58;;
3587;SDS011;1808;53.596;9.972;2023-04-01T05:57:49;2.47;;;1.30;;
3587;SDS011;1808;53.596;9.972;2023-04-01T06:00:16;2.60;;;1.30;;
3587;SDS011;1808;53.596;9.972;2023-04-01T06:02:45;2.17;;;1.30;;
3587;SDS011;1808;53.596;9.972;2023-04-01T06:05:13;3.05;;;1.27;;
3587;SDS011;1808;53.596;9.972;2023-04-01T06:07:40;2.50;;;1.20;;
3587;SDS011;1808;53.596;9.972;2023-04-01T06:10:11;3.15;;;1.70;;
3587;SDS011;1808;53.596;9.972;2023-04-01T06:12:44;2.78;;;1.52;;
3587;SDS011;1808;53.596;9.972;2023-04-01T06:15:18;3.65;;;1.73;;
3587;SDS011;1808;53.596;9.972;2023-04-01T06:17:52;2.33;;;1.17;;
3587;SDS011;1808;53.596;9.972;2023-04-01T06:20:28;2.92;;;1.63;;
3587;SDS011;1808;53.596;9.972;2023-04-01T06:22:59;2.90;;;1.60;;
3587;SDS011;1808;53.596;9.972;2023-04-01T06:25:31;3.72;;;2.28;;
3587;SDS011;1808;53.596;9.972;2023-04-01T06:28:07;3.00;;;1.50;;
3587;SDS011;1808;53.596;9.972;2023-04-01T06:30:40;2.95;;;1.50;;
3587;SDS011;1808;53.596;9.972;2023-04-01T06:33:12;3.20;;;1.92;;
3587;SDS011;1808;53.596;9.972;2023-04-01T06:35:50;3.95;;;1.75;;
3587;SDS011;1808;53.596;9.972;2023-04-01T06:38:26;4.72;;;1.95;;
3587;SDS011;1808;53.596;9.972;2023-04-01T06:41:08;2.13;;;1.27;;
3587;SDS011;1808;53.596;9.972;2023-04-01T06:43:42;3.33;;;1.55;;
3587;SDS011;1808;53.596;9.972;2023-04-01T06:46:12;3.35;;;1.40;;
3587;SDS011;1808;53.596;9.972;2023-04-01T06:48:47;2.90;;;1.35;;
3587;SDS011;1808;53.596;9.972;2023-04-01T06:51:21;2.35;;;1.08;;
3587;SDS011;1808;53.596;9.972;2023-04-01T06:53:52;2.97;;;1.40;;
3587;SDS011;1808;53.596;9.972;2023-04-01T06:56:22;2.50;;;1.08;;
3587;SDS011;1808;53.596;9.972;2023-04-01T06:58:51;2.13;;;0.80;;
3587;SDS011;1808;53.596;9.972;2023-04-01T07:01:20;2.42;;;1.13;;
3587;SDS011;1808;53.596;9.972;2023-04-01T07:03:49;2.90;;;1.10;;
3587;SDS011;1808;53.596;9.972;2023-04-01T07:06:16;4.03;;;1.17;;
3587;SDS011;1808;53.596;9.972;2023-04-01T07:08:46;3.33;;;0.98;;
3587;SDS011;1808;53.596;9.972;2023-04-01T07:11:15;1.90;;;0.95;;
3587;SDS011;1808;53.596;9.972;2023-04-01T07:13:45;2.22;;;1.00;;
3587;SDS011;1808;53.596;9.972;2023-04-01T07:16:15;2.30;;;1.17;;
3587;SDS011;1808;53.596;9.972;2023-04-01T07:18:43;2.40;;;0.90;;
3587;SDS011;1808;53.596;9.972;2023-04-01T07:21:12;2.40;;;0.98;;
3587;SDS011;1808;53.596;9.972;2023-04-01T07:23:42;2.63;;;1.20;;
3587;SDS011;1808;53.596;9.972;2023-04-01T07:26:14;2.05;;;0.90;;
3587;SDS011;1808;53.596;9.972;2023-04-01T07:28:40;1.52;;;0.70;;
3587;SDS011;1808;53.596;9.972;2023-04-01T07:31:10;3.28;;;0.68;;
3587;SDS011;1808;53.596;9.972;2023-04-01T07:33:42;2.10;;;0.82;;
3587;SDS011;1808;53.596;9.972;2023-04-01T07:36:10;2.63;;;1.00;;
3587;SDS011;1808;53.596;9.972;2023-04-01T07:38:41;2.35;;;0.95;;
3587;SDS011;1808;53.596;9.972;2023-04-01T07:41:11;2.25;;;0.80;;
3587;SDS011;1808;53.596;9.972;2023-04-01T07:43:44;1.92;;;0.85;;
3587;SDS011;1808;53.596;9.972;2023-04-01T07:46:19;3.85;;;0.93;;
3587;SDS011;1808;53.596;9.972;2023-04-01T07:48:51;2.38;;;0.80;;
3587;SDS011;1808;53.596;9.972;2023-04-01T07:51:21;3.03;;;1.02;;
3587;SDS011;1808;53.596;9.972;2023-04-01T07:53:49;2.78;;;1.02;;
3587;SDS011;1808;53.596;9.972;2023-04-01T07:56:19;2.20;;;1.00;;
3587;SDS011;1808;53.596;9.972;2023-04-01T07:58:51;2.67;;;1.20;;
3587;SDS011;1808;53.596;9.972;2023-04-01T08:01:23;2.88;;;1.02;;
3587;SDS011;1808;53.596;9.972;2023-04-01T08:06:19;2.15;;;0.70;;
3587;SDS011;1808;53.596;9.972;2023-04-01T08:08:53;1.35;;;0.60;;
3587;SDS011;1808;53.596;9.972;2023-04-01T08:11:25;2.60;;;1.20;;
3587;SDS011;1808;53.596;9.972;2023-04-01T08:13:57;2.42;;;1.10;;
3587;SDS011;1808;53.596;9.972;2023-04-01T08:16:31;2.40;;;0.85;;
3587;SDS011;1808;53.596;9.972;2023-04-01T08:19:01;1.95;;;0.70;;
3587;SDS011;1808;53.596;9.972;2023-04-01T08:21:31;3.95;;;1.02;;
3587;SDS011;1808;53.596;9.972;2023-04-01T08:24:00;1.98;;;0.90;;
3587;SDS011;1808;53.596;9.972;2023-04-01T08:26:32;2.83;;;1.05;;
3587;SDS011;1808;53.596;9.972;2023-04-01T08:29:02;2.80;;;1.27;;
3587;SDS011;1808;53.596;9.972;2023-04-01T08:31:31;2.30;;;0.80;;
3587;SDS011;1808;53.596;9.972;2023-04-01T08:33:59;3.17;;;1.38;;
3587;SDS011;1808;53.596;9.972;2023-04-01T08:36:28;2.00;;;0.93;;
3587;SDS011;1808;53.596;9.972;2023-04-01T08:38:57;2.53;;;1.20;;
3587;SDS011;1808;53.596;9.972;2023-04-01T08:41:28;3.60;;;1.30;;
3587;SDS011;1808;53.596;9.972;2023-04-01T08:44:12;2.28;;;1.13;;
3587;SDS011;1808;53.596;9.972;2023-04-01T08:46:52;2.80;;;1.02;;
3587;SDS011;1808;53.596;9.972;2023-04-01T08:49:26;2.00;;;0.90;;
3587;SDS011;1808;53.596;9.972;2023-04-01T08:52:06;1.73;;;0.88;;
3587;SDS011;1808;53.596;9.972;2023-04-01T08:54:39;2.67;;;0.93;;
3587;SDS011;1808;53.596;9.972;2023-04-01T08:57:09;2.30;;;0.95;;
3587;SDS011;1808;53.596;9.972;2023-04-01T08:59:44;2.28;;;0.73;;
3587;SDS011;1808;53.596;9.972;2023-04-01T09:02:21;1.80;;;0.88;;
3587;SDS011;1808;53.596;9.972;2023-04-01T09:04:52;1.85;;;0.90;;
3587;SDS011;1808;53.596;9.972;2023-04-01T09:07:33;2.17;;;1.10;;
3587;SDS011;1808;53.596;9.972;2023-04-01T09:10:11;2.70;;;1.00;;
3587;SDS011;1808;53.596;9.972;2023-04-01T09:12:50;1.95;;;0.95;;
3587;SDS011;1808;53.596;9.972;2023-04-01T09:15:20;2.80;;;0.90;;
3587;SDS011;1808;53.596;9.972;2023-04-01T09:23:28;2.63;;;1.13;;
3587;SDS011;1808;53.596;9.972;2023-04-01T09:25:58;2.70;;;1.00;;
3587;SDS011;1808;53.596;9.972;2023-04-01T09:28:33;2.75;;;1.05;;
3587;SDS011;1808;53.596;9.972;2023-04-01T09:31:12;1.88;;;0.82;;
3587;SDS011;1808;53.596;9.972;2023-04-01T09:33:51;2.10;;;0.88;;
3587;SDS011;1808;53.596;9.972;2023-04-01T09:36:33;1.75;;;0.63;;
3587;SDS011;1808;53.596;9.972;2023-04-01T09:39:11;1.38;;;0.73;;
3587;SDS011;1808;53.596;9.972;2023-04-01T09:41:39;1.40;;;0.70;;
3587;SDS011;1808;53.596;9.972;2023-04-01T09:44:14;3.03;;;1.08;;
3587;SDS011;1808;53.596;9.972;2023-04-01T09:46:48;2.05;;;0.95;;
3587;SDS011;1808;53.596;9.972;2023-04-01T09:49:35;3.22;;;1.10;;
3587;SDS011;1808;53.596;9.972;2023-04-01T09:52:08;2.30;;;1.13;;
3587;SDS011;1808;53.596;9.972;2023-04-01T09:54:42;2.40;;;1.00;;
3587;SDS011;1808;53.596;9.972;2023-04-01T09:57:27;1.83;;;0.93;;
3587;SDS011;1808;53.596;9.972;2023-04-01T10:00:06;1.70;;;0.90;;
3587;SDS011;1808;53.596;9.972;2023-04-01T10:02:43;2.10;;;0.70;;
3587;SDS011;1808;53.596;9.972;2023-04-01T10:13:38;1.75;;;0.70;;
3587;SDS011;1808;53.596;9.972;2023-04-01T10:16:14;2.80;;;0.90;;
3587;SDS011;1808;53.596;9.972;2023-04-01T10:24:22;1.88;;;0.40;;
3587;SDS011;1808;53.596;9.972;2023-04-01T10:29:42;2.45;;;1.00;;
3587;SDS011;1808;53.596;9.972;2023-04-01T10:32:19;1.95;;;0.88;;
3587;SDS011;1808;53.596;9.972;2023-04-01T10:37:52;1.80;;;0.80;;
3587;SDS011;1808;53.596;9.972;2023-04-01T10:48:55;1.75;;;0.65;;
3587;SDS011;1808;53.596;9.972;2023-04-01T10:54:29;1.45;;;0.60;;
3587;SDS011;1808;53.596;9.972;2023-04-01T10:57:02;1.65;;;0.70;;
3587;SDS011;1808;53.596;9.972;2023-04-01T11:05:30;1.20;;;0.57;;
3587;SDS011;1808;53.596;9.972;2023-04-01T11:08:11;1.63;;;0.68;;
3587;SDS011;1808;53.596;9.972;2023-04-01T11:13:33;1.60;;;0.68;;
3587;SDS011;1808;53.596;9.972;2023-04-01T11:16:16;1.08;;;0.57;;
3587;SDS011;1808;53.596;9.972;2023-04-01T11:18:51;1.83;;;0.88;;
3587;SDS011;1808;53.596;9.972;2023-04-01T11:24:11;2.90;;;1.08;;
3587;SDS011;1808;53.596;9.972;2023-04-01T11:26:43;2.03;;;1.00;;
3587;SDS011;1808;53.596;9.972;2023-04-01T11:29:19;3.28;;;1.15;;
3587;SDS011;1808;53.596;9.972;2023-04-01T11:31:55;1.95;;;0.90;;
3587;SDS011;1808;53.596;9.972;2023-04-01T11:34:37;3.53;;;1.27;;
3587;SDS011;1808;53.596;9.972;2023-04-01T11:37:09;3.05;;;1.40;;
3587;SDS011;1808;53.596;9.972;2023-04-01T11:39:43;3.05;;;1.70;;
3587;SDS011;1808;53.596;9.972;2023-04-01T11:42:16;2.67;;;1.40;;
3587;SDS011;1808;53.596;9.972;2023-04-01T11:44:46;3.42;;;1.40;;
3587;SDS011;1808;53.596;9.972;2023-04-01T11:47:30;4.15;;;1.67;;
3587;SDS011;1808;53.596;9.972;2023-04-01T11:50:11;4.50;;;1.60;;
3587;SDS011;1808;53.596;9.972;2023-04-01T11:52:43;3.42;;;1.98;;
3587;SDS011;1808;53.596;9.972;2023-04-01T11:55:32;4.22;;;1.50;;
3587;SDS011;1808;53.596;9.972;2023-04-01T11:58:20;2.60;;;1.33;;
3587;SDS011;1808;53.596;9.972;2023-04-01T12:00:51;3.72;;;1.95;;
3587;SDS011;1808;53.596;9.972;2023-04-01T12:03:27;3.40;;;1.85;;
3587;SDS011;1808;53.596;9.972;2023-04-01T12:06:00;5.40;;;2.75;;
3587;SDS011;1808;53.596;9.972;2023-04-01T12:08:33;4.47;;;2.25;;
3587;SDS011;1808;53.596;9.972;2023-04-01T12:11:05;4.85;;;2.65;;
3587;SDS011;1808;53.596;9.972;2023-04-01T12:13:37;6.65;;;3.38;;
3587;SDS011;1808;53.596;9.972;2023-04-01T12:18:54;7.05;;;2.97;;
3587;SDS011;1808;53.596;9.972;2023-04-01T12:21:24;5.65;;;3.97;;
3587;SDS011;1808;53.596;9.972;2023-04-01T12:23:58;5.22;;;2.70;;
3587;SDS011;1808;53.596;9.972;2023-04-01T12:26:35;6.35;;;3.25;;
3587;SDS011;1808;53.596;9.972;2023-04-01T12:29:14;5.78;;;3.88;;
3587;SDS011;1808;53.596;9.972;2023-04-01T12:31:47;6.38;;;3.78;;
3587;SDS011;1808;53.596;9.972;2023-04-01T12:34:36;5.38;;;2.97;;
3587;SDS011;1808;53.596;9.972;2023-04-01T12:37:08;5.45;;;3.22;;
3587;SDS011;1808;53.596;9.972;2023-04-01T12:39:44;4.93;;;2.95;;
3587;SDS011;1808;53.596;9.972;2023-04-01T12:42:19;6.10;;;3.58;;
3587;SDS011;1808;53.596;9.972;2023-04-01T12:44:51;5.85;;;3.40;;
3587;SDS011;1808;53.596;9.972;2023-04-01T12:50:11;8.40;;;3.75;;
3587;SDS011;1808;53.596;9.972;2023-04-01T12:52:45;7.78;;;3.75;;
3587;SDS011;1808;53.596;9.972;2023-04-01T12:55:23;7.38;;;3.40;;
3587;SDS011;1808;53.596;9.972;2023-04-01T12:58:02;5.18;;;3.70;;
3587;SDS011;1808;53.596;9.972;2023-04-01T13:00:38;5.70;;;3.40;;
3587;SDS011;1808;53.596;9.972;2023-04-01T13:03:12;8.00;;;3.28;;
3587;SDS011;1808;53.596;9.972;2023-04-01T13:08:27;5.70;;;3.60;;
3587;SDS011;1808;53.596;9.972;2023-04-01T13:11:02;4.88;;;2.83;;
3587;SDS011;1808;53.596;9.972;2023-04-01T13:13:45;7.20;;;3.67;;
3587;SDS011;1808;53.596;9.972;2023-04-01T13:16:15;5.32;;;2.92;;
3587;SDS011;1808;53.596;9.972;2023-04-01T13:18:51;6.15;;;3.72;;
3587;SDS011;1808;53.596;9.972;2023-04-01T13:21:21;5.70;;;3.88;;
3587;SDS011;1808;53.596;9.972;2023-04-01T13:23:55;6.85;;;4.50;;
3587;SDS011;1808;53.596;9.972;2023-04-01T13:26:22;5.93;;;3.65;;
3587;SDS011;1808;53.596;9.972;2023-04-01T13:28:56;7.57;;;3.50;;
3587;SDS011;1808;53.596;9.972;2023-04-01T13:31:37;5.40;;;3.08;;
3587;SDS011;1808;53.596;9.972;2023-04-01T13:34:08;4.68;;;2.60;;
3587;SDS011;1808;53.596;9.972;2023-04-01T13:36:40;5.80;;;3.08;;
3587;SDS011;1808;53.596;9.972;2023-04-01T13:39:14;5.32;;;2.63;;
3587;SDS011;1808;53.596;9.972;2023-04-01T13:41:48;6.20;;;2.63;;
3587;SDS011;1808;53.596;9.972;2023-04-01T13:44:20;6.45;;;2.90;;
3587;SDS011;1808;53.596;9.972;2023-04-01T13:46:59;5.78;;;3.38;;
3587;SDS011;1808;53.596;9.972;2023-04-01T13:49:36;7.28;;;4.22;;
3587;SDS011;1808;53.596;9.972;2023-04-01T13:52:07;7.57;;;4.18;;
3587;SDS011;1808;53.596;9.972;2023-04-01T13:54:46;6.18;;;3.40;;
3587;SDS011;1808;53.596;9.972;2023-04-01T13:57:24;7.43;;;3.78;;
3587;SDS011;1808;53.596;9.972;2023-04-01T14:00:05;5.30;;;2.92;;
3587;SDS011;1808;53.596;9.972;2023-04-01T14:05:32;7.88;;;4.35;;
3587;SDS011;1808;53.596;9.972;2023-04-01T14:08:04;6.90;;;3.05;;
3587;SDS011;1808;53.596;9.972;2023-04-01T14:10:35;8.90;;;4.20;;
3587;SDS011;1808;53.596;9.972;2023-04-01T14:13:04;5.85;;;2.80;;
3587;SDS011;1808;53.596;9.972;2023-04-01T14:15:41;7.78;;;4.68;;
3587;SDS011;1808;53.596;9.972;2023-04-01T14:18:14;6.10;;;4.50;;
3587;SDS011;1808;53.596;9.972;2023-04-01T14:20:42;9.13;;;4.05;;
3587;SDS011;1808;53.596;9.972;2023-04-01T14:26:07;10.45;;;5.30;;
3587;SDS011;1808;53.596;9.972;2023-04-01T14:28:37;12.18;;;4.63;;
3587;SDS011;1808;53.596;9.972;2023-04-01T14:33:57;6.88;;;4.13;;
3587;SDS011;1808;53.596;9.972;2023-04-01T14:36:29;7.43;;;4.32;;
3587;SDS011;1808;53.596;9.972;2023-04-01T14:38:59;5.93;;;3.78;;
3587;SDS011;1808;53.596;9.972;2023-04-01T14:41:29;6.55;;;3.50;;
3587;SDS011;1808;53.596;9.972;2023-04-01T14:44:03;9.50;;;4.82;;
3587;SDS011;1808;53.596;9.972;2023-04-01T14:46:38;7.80;;;4.32;;
3587;SDS011;1808;53.596;9.972;2023-04-01T14:49:17;8.00;;;3.50;;
3587;SDS011;1808;53.596;9.972;2023-04-01T14:51:46;8.40;;;5.78;;
3587;SDS011;1808;53.596;9.972;2023-04-01T14:54:13;10.10;;;4.25;;
3587;SDS011;1808;53.596;9.972;2023-04-01T14:56:47;8.77;;;5.35;;
3587;SDS011;1808;53.596;9.972;2023-04-01T14:59:15;9.43;;;5.03;;
3587;SDS011;1808;53.596;9.972;2023-04-01T15:01:46;14.88;;;7.45;;
3587;SDS011;1808;53.596;9.972;2023-04-01T15:04:18;10.85;;;6.40;;
3587;SDS011;1808;53.596;9.972;2023-04-01T15:09:32;11.77;;;5.97;;
3587;SDS011;1808;53.596;9.972;2023-04-01T15:12:06;11.20;;;6.07;;
3587;SDS011;1808;53.596;9.972;2023-04-01T15:17:29;10.55;;;6.32;;
3587;SDS011;1808;53.596;9.972;2023-04-01T15:20:07;11.45;;;6.15;;
3587;SDS011;1808;53.596;9.972;2023-04-01T15:22:43;8.27;;;5.32;;
3587;SDS011;1808;53.596;9.972;2023-04-01T15:25:24;10.10;;;4.55;;
3587;SDS011;1808;53.596;9.972;2023-04-01T15:27:55;9.23;;;5.10;;
3587;SDS011;1808;53.596;9.972;2023-04-01T15:30:29;12.68;;;6.85;;
3587;SDS011;1808;53.596;9.972;2023-04-01T15:33:05;11.43;;;7.35;;
3587;SDS011;1808;53.596;9.972;2023-04-01T15:35:37;10.13;;;4.82;;
3587;SDS011;1808;53.596;9.972;2023-04-01T15:38:06;7.38;;;4.68;;
3587;SDS011;1808;53.596;9.972;2023-04-01T15:40:37;10.43;;;6.55;;
3587;SDS011;1808;53.596;9.972;2023-04-01T15:45:36;9.93;;;6.57;;
3587;SDS011;1808;53.596;9.972;2023-04-01T15:48:06;10.32;;;5.45;;
3587;SDS011;1808;53.596;9.972;2023-04-01T15:50:46;10.55;;;5.45;;
3587;SDS011;1808;53.596;9.972;2023-04-01T15:53:22;14.98;;;7.30;;
3587;SDS011;1808;53.596;9.972;2023-04-01T15:55:52;11.93;;;5.50;;
3587;SDS011;1808;53.596;9.972;2023-04-01T15:58:27;15.77;;;6.85;;
3587;SDS011;1808;53.596;9.972;2023-04-01T16:00:56;12.55;;;6.45;;
3587;SDS011;1808;53.596;9.972;2023-04-01T16:03:31;14.98;;;6.60;;
3587;SDS011;1808;53.596;9.972;2023-04-01T16:11:31;13.05;;;7.22;;
3587;SDS011;1808;53.596;9.972;2023-04-01T16:14:07;9.98;;;5.00;;
3587;SDS011;1808;53.596;9.972;2023-04-01T16:16:42;13.77;;;7.30;;
3587;SDS011;1808;53.596;9.972;2023-04-01T16:19:19;13.00;;;5.90;;
3587;SDS011;1808;53.596;9.972;2023-04-01T16:21:52;9.77;;;5.57;;
3587;SDS011;1808;53.596;9.972;2023-04-01T16:24:22;9.18;;;6.90;;
3587;SDS011;1808;53.596;9.972;2023-04-01T16:26:52;13.65;;;7.75;;
3587;SDS011;1808;53.596;9.972;2023-04-01T16:29:22;9.20;;;5.53;;
3587;SDS011;1808;53.596;9.972;2023-04-01T16:31:51;16.10;;;6.63;;
3587;SDS011;1808;53.596;9.972;2023-04-01T16:34:19;9.80;;;5.35;;
3587;SDS011;1808;53.596;9.972;2023-04-01T16:36:47;12.93;;;6.28;;
3587;SDS011;1808;53.596;9.972;2023-04-01T16:39:27;9.27;;;5.15;;
3587;SDS011;1808;53.596;9.972;2023-04-01T16:42:06;13.43;;;8.55;;
3587;SDS011;1808;53.596;9.972;2023-04-01T16:44:44;15.15;;;8.65;;
3587;SDS011;1808;53.596;9.972;2023-04-01T16:47:13;13.20;;;5.85;;
3587;SDS011;1808;53.596;9.972;2023-04-01T16:49:41;13.82;;;8.02;;
3587;SDS011;1808;53.596;9.972;2023-04-01T16:52:16;11.45;;;6.47;;
3587;SDS011;1808;53.596;9.972;2023-04-01T16:54:47;16.02;;;6.25;;